createdAt,value
2018-07-20T00:01:35.130Z,15.20
2018-07-20T00:04:04.416Z,15.20
2018-07-20T00:06:33.564Z,15.10
2018-07-20T00:09:02.732Z,15.10
2018-07-20T00:11:31.863Z,15.10
2018-07-20T00:14:01.033Z,15.10
2018-07-20T00:16:30.221Z,15.10
2018-07-20T00:18:59.626Z,15.10
2018-07-20T00:21:28.793Z,15.10
2018-07-20T00:23:57.857Z,15.00
2018-07-20T00:26:26.896Z,15.00
2018-07-20T00:28:56.212Z,15.00
2018-07-20T00:31:25.313Z,15.00
2018-07-20T00:33:54.690Z,14.90
2018-07-20T00:36:23.854Z,14.90
2018-07-20T00:38:53.213Z,14.80
2018-07-20T00:41:23.006Z,14.90
2018-07-20T00:43:52.057Z,14.90
2018-07-20T00:46:21.157Z,14.80
2018-07-20T00:48:50.176Z,14.80
2018-07-20T00:51:19.305Z,14.80
2018-07-20T00:53:48.409Z,14.80
2018-07-20T00:56:17.560Z,14.80
2018-07-20T00:58:47.233Z,14.80
2018-07-20T01:01:16.357Z,14.80
2018-07-20T01:03:45.454Z,14.80
2018-07-20T01:06:14.583Z,14.80
2018-07-20T01:08:43.675Z,14.80
2018-07-20T01:11:12.777Z,14.80
2018-07-20T01:13:41.852Z,14.70
2018-07-20T01:16:10.917Z,14.70
2018-07-20T01:18:40.009Z,14.70
2018-07-20T01:21:09.135Z,14.70
2018-07-20T01:23:38.160Z,14.70
2018-07-20T01:26:07.218Z,14.70
2018-07-20T01:28:36.266Z,14.70
2018-07-20T01:31:05.418Z,14.70
2018-07-20T01:33:34.489Z,14.60
2018-07-20T01:36:03.947Z,14.60
2018-07-20T01:38:33.368Z,14.50
2018-07-20T01:41:02.424Z,14.60
2018-07-20T01:43:31.525Z,14.60
2018-07-20T01:46:00.580Z,14.50
2018-07-20T01:48:29.684Z,14.50
2018-07-20T01:50:58.823Z,14.50
2018-07-20T01:53:28.171Z,14.40
2018-07-20T01:55:57.528Z,14.40
2018-07-20T01:58:26.612Z,14.40
2018-07-20T02:00:55.636Z,14.30
2018-07-20T02:03:24.705Z,14.30
2018-07-20T02:05:53.716Z,14.20
2018-07-20T02:08:22.759Z,14.30
2018-07-20T02:10:58.938Z,14.20
2018-07-20T02:13:28.167Z,14.20
2018-07-20T02:15:57.984Z,14.20
2018-07-20T02:18:27.085Z,14.10
2018-07-20T02:20:56.133Z,14.10
2018-07-20T02:23:25.251Z,14.10
2018-07-20T02:25:54.701Z,14.10
2018-07-20T02:28:23.745Z,14.10
2018-07-20T02:30:52.844Z,14.10
2018-07-20T02:33:21.809Z,14.00
2018-07-20T02:35:50.902Z,14.00
2018-07-20T02:38:19.983Z,14.00
2018-07-20T02:40:49.109Z,14.00
2018-07-20T02:43:18.191Z,14.00
2018-07-20T02:45:47.213Z,14.00
2018-07-20T02:48:16.293Z,14.00
2018-07-20T02:50:45.485Z,13.90
2018-07-20T02:53:15.263Z,13.90
2018-07-20T02:55:44.302Z,13.90
2018-07-20T02:58:13.348Z,13.90
2018-07-20T03:00:42.396Z,13.80
2018-07-20T03:03:11.454Z,13.80
2018-07-20T03:05:40.515Z,13.80
2018-07-20T03:08:09.741Z,13.80
2018-07-20T03:10:38.802Z,13.80
2018-07-20T03:13:08.219Z,13.80
2018-07-20T03:15:37.321Z,13.70
2018-07-20T03:18:07.106Z,13.70
2018-07-20T03:20:36.251Z,13.70
2018-07-20T03:23:05.258Z,13.60
2018-07-20T03:25:34.343Z,13.60
2018-07-20T03:28:03.470Z,13.60
2018-07-20T03:30:32.511Z,13.50
2018-07-20T03:33:01.535Z,13.50
2018-07-20T03:35:30.646Z,13.50
2018-07-20T03:37:59.754Z,13.50
2018-07-20T03:40:28.837Z,13.50
2018-07-20T03:42:57.843Z,13.60
2018-07-20T03:45:27.054Z,13.50
2018-07-20T03:47:56.231Z,13.60
2018-07-20T03:50:25.305Z,13.60
2018-07-20T03:52:54.360Z,13.50
2018-07-20T03:55:23.445Z,13.50
2018-07-20T03:57:52.844Z,13.50
2018-07-20T04:00:21.912Z,13.50
2018-07-20T04:02:50.956Z,13.60
2018-07-20T04:05:20.193Z,13.60
2018-07-20T04:07:49.255Z,13.60
2018-07-20T04:10:18.568Z,13.60
2018-07-20T04:12:47.628Z,13.60
2018-07-20T04:15:16.646Z,13.70
2018-07-20T04:17:46.261Z,13.70
2018-07-20T04:20:16.549Z,13.80
2018-07-20T04:22:45.745Z,13.80
2018-07-20T04:25:14.768Z,13.90
2018-07-20T04:27:43.789Z,14.00
2018-07-20T04:30:13.852Z,14.10
2018-07-20T04:32:42.973Z,14.20
2018-07-20T04:35:12.235Z,14.30
2018-07-20T04:37:41.242Z,14.30
2018-07-20T04:40:10.416Z,14.50
2018-07-20T04:42:39.483Z,14.50
2018-07-20T04:45:08.643Z,14.60
2018-07-20T04:47:42.188Z,14.70
2018-07-20T04:50:39.012Z,14.80
2018-07-20T04:53:39.973Z,14.80
2018-07-20T04:56:43.376Z,14.90
2018-07-20T05:13:54.198Z,15.70
2018-07-20T05:16:58.548Z,15.90
2018-07-20T05:19:31.705Z,16.20
2018-07-20T05:22:00.662Z,16.40
2018-07-20T05:24:29.652Z,16.60
2018-07-20T05:26:59.093Z,16.80
2018-07-20T05:29:31.180Z,17.00
2018-07-20T05:32:05.358Z,17.20
2018-07-20T05:34:36.873Z,17.50
2018-07-20T05:37:07.833Z,17.70
2018-07-20T05:39:39.991Z,18.00
2018-07-20T05:42:11.701Z,18.30
2018-07-20T05:44:42.304Z,18.60
2018-07-20T05:47:13.824Z,18.80
2018-07-20T05:49:43.294Z,19.00
2018-07-20T05:52:13.142Z,19.30
2018-07-20T05:54:42.993Z,19.40
2018-07-20T05:57:12.749Z,19.60
2018-07-20T05:59:43.135Z,19.80
2018-07-20T06:02:13.320Z,20.00
2018-07-20T06:04:43.685Z,20.20
2018-07-20T06:07:14.286Z,20.30
2018-07-20T06:09:44.360Z,20.60
2018-07-20T06:12:14.261Z,20.80
2018-07-20T06:14:44.111Z,21.10
2018-07-20T06:17:13.902Z,21.20
2018-07-20T06:19:43.225Z,21.30
2018-07-20T06:22:12.195Z,21.40
2018-07-20T06:24:41.285Z,21.50
2018-07-20T06:27:10.595Z,21.80
2018-07-20T06:29:41.163Z,21.90
2018-07-20T06:32:10.934Z,22.30
2018-07-20T06:34:40.591Z,22.40
2018-07-20T06:37:09.624Z,22.40
2018-07-20T06:39:39.379Z,22.30
2018-07-20T06:42:08.316Z,22.60
2018-07-20T06:44:37.289Z,22.80
2018-07-20T06:47:08.923Z,23.00
2018-07-20T06:49:38.865Z,23.20
2018-07-20T06:52:32.099Z,23.30
2018-07-20T06:55:01.839Z,23.50
2018-07-20T06:57:31.810Z,23.70
2018-07-20T07:00:01.201Z,24.00
2018-07-20T07:02:31.160Z,24.30
2018-07-20T07:05:00.520Z,24.50
2018-07-20T07:07:29.756Z,24.70
2018-07-20T07:09:58.904Z,24.50
2018-07-20T07:12:27.986Z,24.20
2018-07-20T07:14:57.696Z,24.00
2018-07-20T07:17:27.455Z,23.90
2018-07-20T07:19:57.044Z,23.80
2018-07-20T07:22:26.762Z,23.80
2018-07-20T07:24:56.369Z,23.80
2018-07-20T07:27:26.466Z,23.70
2018-07-20T07:29:55.444Z,23.60
2018-07-20T07:32:26.005Z,23.50
2018-07-20T07:34:57.502Z,23.60
2018-07-20T07:37:27.359Z,23.80
2018-07-20T07:39:57.941Z,24.20
2018-07-20T07:42:29.109Z,24.50
2018-07-20T07:44:59.758Z,24.80
2018-07-20T07:47:29.526Z,24.90
2018-07-20T07:49:58.675Z,25.00
2018-07-20T07:52:27.892Z,25.10
2018-07-20T07:54:56.970Z,25.20
2018-07-20T07:57:26.093Z,25.30
2018-07-20T07:59:55.140Z,25.40
2018-07-20T08:02:24.230Z,25.50
2018-07-20T08:04:53.249Z,25.90
2018-07-20T08:07:22.301Z,26.20
2018-07-20T08:09:51.431Z,26.50
2018-07-20T08:12:20.598Z,26.50
2018-07-20T08:14:49.620Z,26.90
2018-07-20T08:17:19.700Z,27.10
2018-07-20T08:19:49.652Z,27.20
2018-07-20T08:22:18.796Z,27.00
2018-07-20T08:24:47.945Z,26.80
2018-07-20T08:27:16.976Z,26.90
2018-07-20T08:29:46.053Z,27.20
2018-07-20T08:32:15.516Z,27.40
2018-07-20T08:34:44.610Z,27.70
2018-07-20T08:37:13.638Z,27.80
2018-07-20T08:39:42.750Z,28.10
2018-07-20T08:42:12.037Z,28.20
2018-07-20T08:44:42.722Z,28.40
2018-07-20T08:47:11.750Z,28.50
2018-07-20T08:49:40.820Z,28.40
2018-07-20T08:52:09.845Z,28.60
2018-07-20T08:54:38.863Z,28.70
2018-07-20T08:57:08.285Z,28.60
2018-07-20T08:59:37.680Z,28.40
2018-07-20T09:02:06.709Z,28.10
2018-07-20T09:04:35.960Z,28.10
2018-07-20T09:07:05.040Z,28.10
2018-07-20T09:09:34.099Z,28.40
2018-07-20T09:12:03.300Z,28.30
2018-07-20T09:14:32.393Z,27.90
2018-07-20T09:17:01.473Z,27.70
2018-07-20T09:19:30.493Z,27.50
2018-07-20T09:21:59.587Z,27.30
2018-07-20T09:24:28.666Z,27.40
2018-07-20T09:26:57.701Z,27.70
2018-07-20T09:29:26.780Z,28.10
2018-07-20T09:31:55.852Z,28.70
2018-07-20T09:34:24.907Z,29.20
2018-07-20T09:36:53.969Z,29.40
2018-07-20T09:39:23.072Z,29.70
2018-07-20T09:41:52.211Z,29.60
2018-07-20T09:44:21.346Z,29.30
2018-07-20T09:46:51.812Z,29.00
2018-07-20T09:49:20.995Z,28.90
2018-07-20T09:51:50.113Z,28.90
2018-07-20T09:54:19.164Z,29.00
2018-07-20T09:56:48.186Z,28.90
2018-07-20T09:59:17.250Z,29.00
2018-07-20T10:01:46.373Z,29.00
2018-07-20T10:04:15.457Z,28.90
2018-07-20T10:06:44.549Z,28.80
2018-07-20T10:09:13.804Z,28.60
2018-07-20T10:11:42.981Z,28.40
2018-07-20T10:14:11.989Z,28.40
2018-07-20T10:16:41.173Z,28.50
2018-07-20T10:19:10.274Z,28.30
2018-07-20T10:21:39.302Z,28.40
2018-07-20T10:24:08.381Z,28.60
2018-07-20T10:26:37.461Z,28.90
2018-07-20T10:29:06.540Z,29.00
2018-07-20T10:31:35.639Z,29.00
2018-07-20T10:34:04.704Z,28.80
2018-07-20T10:36:33.747Z,28.80
2018-07-20T10:39:03.020Z,28.60
2018-07-20T10:41:32.061Z,28.60
2018-07-20T10:44:01.522Z,28.60
2018-07-20T10:46:30.540Z,28.40
2018-07-20T10:49:00.124Z,28.40
2018-07-20T10:51:29.173Z,28.50
2018-07-20T10:53:58.220Z,28.50
2018-07-20T10:56:27.360Z,28.40
2018-07-20T10:58:56.496Z,28.30
2018-07-20T11:01:25.664Z,28.30
2018-07-20T11:03:54.736Z,28.40
2018-07-20T11:06:24.903Z,28.50
2018-07-20T11:08:54.057Z,28.60
2018-07-20T11:11:23.125Z,28.40
2018-07-20T11:13:52.924Z,28.40
2018-07-20T11:16:22.041Z,28.40
2018-07-20T11:18:51.131Z,28.40
2018-07-20T11:21:20.113Z,28.40
2018-07-20T11:23:49.187Z,28.40
2018-07-20T11:26:24.346Z,28.40
2018-07-20T11:28:53.422Z,28.40
2018-07-20T11:31:22.428Z,28.40
2018-07-20T11:33:51.612Z,28.50
2018-07-20T11:36:20.625Z,28.50
2018-07-20T11:38:49.729Z,28.30
2018-07-20T11:41:19.045Z,28.30
2018-07-20T11:43:48.205Z,28.50
2018-07-20T11:46:18.348Z,28.60
2018-07-20T11:48:47.627Z,28.70
2018-07-20T11:51:18.093Z,28.90
2018-07-20T11:53:47.522Z,28.80
2018-07-20T11:56:16.848Z,28.90
2018-07-20T11:58:46.023Z,29.00
2018-07-20T12:01:15.215Z,28.90
2018-07-20T12:03:44.365Z,28.80
2018-07-20T12:06:13.805Z,28.80
2018-07-20T12:08:42.921Z,28.90
2018-07-20T12:11:12.029Z,28.80
2018-07-20T12:13:41.151Z,28.70
2018-07-20T12:16:10.228Z,28.80
2018-07-20T12:18:40.232Z,28.80
2018-07-20T12:21:09.299Z,28.90
2018-07-20T12:23:38.373Z,28.90
2018-07-20T12:26:07.482Z,28.90
2018-07-20T12:28:36.531Z,28.80
2018-07-20T12:31:05.826Z,28.70
2018-07-20T12:33:34.924Z,28.70
2018-07-20T12:36:04.120Z,28.80
2018-07-20T12:38:33.117Z,28.90
2018-07-20T12:41:02.231Z,28.90
2018-07-20T12:43:31.204Z,29.10
2018-07-20T12:46:00.262Z,29.20
2018-07-20T12:48:29.410Z,29.30
2018-07-20T12:50:58.465Z,29.30
2018-07-20T12:53:27.514Z,29.20
2018-07-20T12:55:56.585Z,29.00
2018-07-20T12:58:25.782Z,28.90
2018-07-20T13:00:54.833Z,28.70
2018-07-20T13:03:23.975Z,28.70
2018-07-20T13:05:53.588Z,28.70
2018-07-20T13:08:22.825Z,28.70
2018-07-20T13:10:51.920Z,28.70
2018-07-20T13:13:21.056Z,28.70
2018-07-20T13:15:50.124Z,28.80
2018-07-20T13:18:19.209Z,28.90
2018-07-20T13:20:48.340Z,28.70
2018-07-20T13:23:17.440Z,28.70
2018-07-20T13:25:46.864Z,28.60
2018-07-20T13:28:15.933Z,28.60
2018-07-20T13:30:45.752Z,28.70
2018-07-20T13:33:14.928Z,28.80
2018-07-20T13:35:44.432Z,28.80
2018-07-20T13:38:13.742Z,28.90
2018-07-20T13:40:42.780Z,29.00
2018-07-20T13:43:11.820Z,29.00
2018-07-20T13:45:44.661Z,29.00
2018-07-20T13:48:13.734Z,28.90
2018-07-20T13:50:42.787Z,28.80
2018-07-20T13:53:12.072Z,28.80
2018-07-20T13:55:41.352Z,29.00
2018-07-20T13:58:10.463Z,29.20
2018-07-20T14:00:39.469Z,29.30
2018-07-20T14:03:08.722Z,29.40
2018-07-20T14:05:37.809Z,29.40
2018-07-20T14:08:06.968Z,29.30
2018-07-20T14:10:36.164Z,29.10
2018-07-20T14:13:05.409Z,28.90
2018-07-20T14:15:34.508Z,28.70
2018-07-20T14:18:03.810Z,28.60
2018-07-20T14:20:33.429Z,28.50
2018-07-20T14:23:02.649Z,28.40
2018-07-20T14:25:31.787Z,28.30
2018-07-20T14:28:00.841Z,28.30
2018-07-20T14:30:29.860Z,28.30
2018-07-20T14:32:59.012Z,28.30
2018-07-20T14:35:28.081Z,28.30
2018-07-20T14:37:57.155Z,28.30
2018-07-20T14:40:26.288Z,28.30
2018-07-20T14:42:55.374Z,28.30
2018-07-20T14:45:24.560Z,28.20
2018-07-20T14:47:53.749Z,28.20
2018-07-20T14:50:23.852Z,28.10
2018-07-20T14:53:03.157Z,28.00
2018-07-20T14:55:32.196Z,28.00
2018-07-20T14:58:01.282Z,28.00
2018-07-20T15:00:30.358Z,27.90
2018-07-20T15:02:59.543Z,27.90
2018-07-20T15:05:28.578Z,28.00
2018-07-20T15:07:57.631Z,27.90
2018-07-20T15:10:26.741Z,27.90
2018-07-20T15:12:55.755Z,27.80
2018-07-20T15:15:25.718Z,27.80
2018-07-20T15:17:54.852Z,27.70
2018-07-20T15:20:23.968Z,27.60
2018-07-20T15:22:53.584Z,27.60
2018-07-20T15:25:22.731Z,27.60
2018-07-20T15:27:52.081Z,27.70
2018-07-20T15:30:21.628Z,27.70
2018-07-20T15:32:50.740Z,27.80
2018-07-20T15:35:19.826Z,27.90
2018-07-20T15:37:48.998Z,28.00
2018-07-20T15:40:18.139Z,28.00
2018-07-20T15:42:47.193Z,27.90
2018-07-20T15:45:16.298Z,27.80
2018-07-20T15:47:45.502Z,27.80
2018-07-20T15:50:14.564Z,27.90
2018-07-20T15:53:36.266Z,27.90
2018-07-20T15:55:12.885Z,27.90
2018-07-20T15:57:42.048Z,27.80
2018-07-20T16:00:11.180Z,27.70
2018-07-20T16:02:40.208Z,27.60
2018-07-20T16:05:09.371Z,27.50
2018-07-20T16:07:38.519Z,27.50
2018-07-20T16:10:07.771Z,27.50
2018-07-20T16:12:36.820Z,27.50
2018-07-20T16:15:06.334Z,27.50
2018-07-20T16:17:35.454Z,27.60
2018-07-20T16:20:04.597Z,27.50
2018-07-20T16:22:33.683Z,27.50
2018-07-20T16:25:02.704Z,27.50
2018-07-20T16:27:31.800Z,27.50
2018-07-20T16:30:00.933Z,27.50
2018-07-20T16:32:30.180Z,27.50
2018-07-20T16:34:59.725Z,27.50
2018-07-20T16:37:30.133Z,27.50
2018-07-20T16:40:00.923Z,27.50
2018-07-20T16:42:30.452Z,27.50
2018-07-20T16:44:59.929Z,27.40
2018-07-20T16:47:29.277Z,27.40
2018-07-20T16:49:58.483Z,27.40
2018-07-20T16:52:27.597Z,27.30
2018-07-20T16:54:56.686Z,27.30
2018-07-20T16:57:25.896Z,27.30
2018-07-20T16:59:55.928Z,27.30
2018-07-20T17:02:26.022Z,27.30
2018-07-20T17:04:55.111Z,27.20
2018-07-20T17:07:24.264Z,27.20
2018-07-20T17:09:53.392Z,27.10
2018-07-20T17:12:22.552Z,27.10
2018-07-20T17:14:51.569Z,27.00
2018-07-20T17:17:20.733Z,27.00
2018-07-20T17:19:50.190Z,26.90
2018-07-20T17:22:19.365Z,26.80
2018-07-20T17:24:48.435Z,26.80
2018-07-20T17:27:17.453Z,26.70
2018-07-20T17:29:46.559Z,26.60
2018-07-20T17:32:16.064Z,26.50
2018-07-20T17:34:45.076Z,26.40
2018-07-20T17:37:14.562Z,26.30
2018-07-20T17:39:43.872Z,26.20
2018-07-20T17:42:12.901Z,26.20
2018-07-20T17:44:42.166Z,26.10
2018-07-20T17:47:11.353Z,26.00
2018-07-20T17:49:40.434Z,25.90
2018-07-20T17:52:09.524Z,25.80
2018-07-20T17:54:38.568Z,25.70
2018-07-20T17:57:07.793Z,25.60
2018-07-20T17:59:36.836Z,25.50
2018-07-20T18:02:06.143Z,25.50
2018-07-20T18:04:35.252Z,25.40
2018-07-20T18:07:06.293Z,25.40
2018-07-20T18:09:36.455Z,25.30
2018-07-20T18:12:05.549Z,25.20
2018-07-20T18:14:34.764Z,25.10
2018-07-20T18:17:04.145Z,25.00
2018-07-20T18:19:37.918Z,25.00
2018-07-20T18:22:10.204Z,24.90
2018-07-20T18:24:39.521Z,24.70
2018-07-20T18:27:08.773Z,24.60
2018-07-20T18:29:37.791Z,24.60
2018-07-20T18:32:09.936Z,24.50
2018-07-20T18:34:38.990Z,24.40
2018-07-20T18:37:08.768Z,24.30
2018-07-20T18:39:37.743Z,24.20
2018-07-20T18:42:06.913Z,24.10
2018-07-20T18:44:36.037Z,24.00
2018-07-20T18:47:05.191Z,23.80
2018-07-20T18:49:34.304Z,23.80
2018-07-20T18:52:04.265Z,23.70
2018-07-20T18:54:33.414Z,23.60
2018-07-20T18:57:02.494Z,23.50
2018-07-20T18:59:31.733Z,23.50
2018-07-20T19:02:00.909Z,23.40
2018-07-20T19:04:29.992Z,23.40
2018-07-20T19:06:59.077Z,23.30
2018-07-20T19:09:28.262Z,23.30
2018-07-20T19:11:57.413Z,23.20
2018-07-20T19:14:26.641Z,23.20
2018-07-20T19:16:55.959Z,23.10
2018-07-20T19:19:25.009Z,23.10
2018-07-20T19:21:54.144Z,23.00
2018-07-20T19:24:23.211Z,23.00
2018-07-20T19:26:52.736Z,23.00
2018-07-20T19:29:21.897Z,23.00
2018-07-20T19:31:50.916Z,22.90
2018-07-20T19:34:20.008Z,22.90
2018-07-20T19:36:49.595Z,22.90
2018-07-20T19:39:18.613Z,22.90
2018-07-20T19:41:47.601Z,22.90
2018-07-20T19:44:16.704Z,22.80
2018-07-20T19:46:45.845Z,22.90
2018-07-20T19:49:14.972Z,22.80
2018-07-20T19:51:45.474Z,22.90
2018-07-20T19:54:14.610Z,22.90
2018-07-20T19:56:43.643Z,22.90
2018-07-20T19:59:12.777Z,22.90
2018-07-20T20:01:41.854Z,22.90
2018-07-20T20:04:10.897Z,23.00
2018-07-20T20:06:39.957Z,23.00
2018-07-20T20:09:10.989Z,23.00
2018-07-20T20:11:40.722Z,23.00
2018-07-20T20:14:10.214Z,22.90
2018-07-20T20:16:44.877Z,22.90
2018-07-20T20:19:14.533Z,23.00
2018-07-20T20:21:45.073Z,23.20
2018-07-20T20:24:15.511Z,23.30
2018-07-20T20:26:45.058Z,23.50
2018-07-20T20:29:14.695Z,23.40
2018-07-20T20:31:44.273Z,22.70
2018-07-20T20:34:13.874Z,21.60
2018-07-20T20:36:44.495Z,20.70
2018-07-20T20:39:14.659Z,20.10
2018-07-20T20:41:44.026Z,19.50
2018-07-20T20:44:13.604Z,19.10
2018-07-20T20:46:42.829Z,18.60
2018-07-20T20:49:12.533Z,18.40
2018-07-20T20:51:42.141Z,18.20
2018-07-20T20:54:11.707Z,18.10
2018-07-20T20:56:41.152Z,18.00
2018-07-20T20:59:10.923Z,17.90
2018-07-20T21:01:40.401Z,17.90
2018-07-20T21:04:10.210Z,17.70
2018-07-20T21:06:40.533Z,17.60
2018-07-20T21:09:10.647Z,17.60
2018-07-20T21:11:40.120Z,17.50
2018-07-20T21:14:09.619Z,17.40
2018-07-20T21:16:38.947Z,17.50
2018-07-20T21:19:08.428Z,17.50
2018-07-20T21:21:38.497Z,17.50
2018-07-20T21:24:08.492Z,17.50
2018-07-20T21:26:37.581Z,17.50
2018-07-20T21:29:06.717Z,17.60
2018-07-20T21:31:36.172Z,17.70
2018-07-20T21:34:05.203Z,17.80
2018-07-20T21:36:34.283Z,17.90
2018-07-20T21:39:03.582Z,17.90
2018-07-20T21:41:32.655Z,18.00
2018-07-20T21:44:01.752Z,18.00
2018-07-20T21:46:30.856Z,18.10
2018-07-20T21:48:59.916Z,18.10
2018-07-20T21:51:28.945Z,18.10
2018-07-20T21:53:58.182Z,18.10
2018-07-20T21:56:27.245Z,18.10
2018-07-20T21:58:56.303Z,18.10
2018-07-20T22:01:25.395Z,18.20
2018-07-20T22:03:54.475Z,18.20
2018-07-20T22:06:23.593Z,18.10
2018-07-20T22:08:52.832Z,18.20
2018-07-20T22:11:21.897Z,18.20
2018-07-20T22:13:51.053Z,18.20
2018-07-20T22:16:20.261Z,18.20
2018-07-20T22:18:49.411Z,18.20
2018-07-20T22:21:18.520Z,18.20
2018-07-20T22:23:47.672Z,18.20
2018-07-20T22:26:16.759Z,18.20
2018-07-20T22:28:46.034Z,18.20
2018-07-20T22:31:15.221Z,18.20
2018-07-20T22:33:44.634Z,18.20
2018-07-20T22:36:13.687Z,18.10
2018-07-20T22:38:42.836Z,18.10
2018-07-20T22:41:12.011Z,18.10
2018-07-20T22:43:41.625Z,18.00
2018-07-20T22:46:10.916Z,18.00
2018-07-20T22:48:40.030Z,18.00
2018-07-20T22:51:09.566Z,18.00
2018-07-20T22:53:38.820Z,18.00
2018-07-20T22:56:09.385Z,18.00
2018-07-20T22:58:38.937Z,18.00
2018-07-20T23:01:08.060Z,18.00
2018-07-20T23:03:37.446Z,18.00
2018-07-20T23:06:06.748Z,18.00
2018-07-20T23:08:35.849Z,18.00
2018-07-20T23:11:05.396Z,18.00
2018-07-20T23:13:34.444Z,18.00
2018-07-20T23:16:03.537Z,18.00
2018-07-20T23:18:32.645Z,18.00
2018-07-20T23:21:01.741Z,18.00
2018-07-20T23:23:30.856Z,18.00
2018-07-20T23:25:59.990Z,17.90
2018-07-20T23:28:29.049Z,17.90
2018-07-20T23:30:58.182Z,17.80
2018-07-20T23:33:27.375Z,17.80
2018-07-20T23:35:56.440Z,17.80
2018-07-20T23:38:26.713Z,17.70
2018-07-20T23:40:55.897Z,17.70
2018-07-20T23:43:24.962Z,17.70
2018-07-20T23:45:54.152Z,17.70
2018-07-20T23:48:23.248Z,17.70
2018-07-20T23:50:53.100Z,17.60
2018-07-20T23:53:22.167Z,17.60
2018-07-20T23:55:51.479Z,17.60
2018-07-20T23:58:20.510Z,17.60
